sensor_id;sensor_type;location;lat;lon;timestamp;P1;durP1;ratioP1;P2;durP2;ratioP2
14342;SDS011;7255;53.596;9.960;2023-02-15T00:01:05;104.40;;;44.20;;
14342;SDS011;7255;53.596;9.960;2023-02-15T00:03:31;109.63;;;43.23;;
14342;SDS011;7255;53.596;9.960;2023-02-15T00:05:59;107.50;;;44.00;;
14342;SDS011;7255;53.596;9.960;2023-02-15T00:08:25;110.03;;;44.33;;
14342;SDS011;7255;53.596;9.960;2023-02-15T00:10:51;113.53;;;45.73;;
14342;SDS011;7255;53.596;9.960;2023-02-15T00:13:17;107.60;;;42.90;;
14342;SDS011;7255;53.596;9.960;2023-02-15T00:15:43;111.07;;;46.50;;
14342;SDS011;7255;53.596;9.960;2023-02-15T00:18:10;116.97;;;44.83;;
14342;SDS011;7255;53.596;9.960;2023-02-15T00:20:36;101.80;;;43.07;;
14342;SDS011;7255;53.596;9.960;2023-02-15T00:23:03;109.97;;;44.27;;
14342;SDS011;7255;53.596;9.960;2023-02-15T00:25:29;111.77;;;43.87;;
14342;SDS011;7255;53.596;9.960;2023-02-15T00:27:56;105.13;;;44.40;;
14342;SDS011;7255;53.596;9.960;2023-02-15T00:30:22;100.90;;;41.43;;
14342;SDS011;7255;53.596;9.960;2023-02-15T00:32:48;109.70;;;44.50;;
14342;SDS011;7255;53.596;9.960;2023-02-15T00:35:14;104.93;;;41.97;;
14342;SDS011;7255;53.596;9.960;2023-02-15T00:37:40;99.60;;;42.00;;
14342;SDS011;7255;53.596;9.960;2023-02-15T00:40:09;112.03;;;42.40;;
14342;SDS011;7255;53.596;9.960;2023-02-15T00:42:35;107.07;;;43.67;;
14342;SDS011;7255;53.596;9.960;2023-02-15T00:45:01;103.67;;;44.37;;
14342;SDS011;7255;53.596;9.960;2023-02-15T00:47:27;101.20;;;45.03;;
14342;SDS011;7255;53.596;9.960;2023-02-15T00:49:53;113.17;;;44.97;;
14342;SDS011;7255;53.596;9.960;2023-02-15T00:52:20;111.10;;;42.43;;
14342;SDS011;7255;53.596;9.960;2023-02-15T00:54:46;100.27;;;42.17;;
14342;SDS011;7255;53.596;9.960;2023-02-15T00:57:13;106.80;;;43.17;;
14342;SDS011;7255;53.596;9.960;2023-02-15T00:59:39;111.03;;;44.67;;
14342;SDS011;7255;53.596;9.960;2023-02-15T01:02:05;99.57;;;42.10;;
14342;SDS011;7255;53.596;9.960;2023-02-15T01:04:32;108.27;;;41.80;;
14342;SDS011;7255;53.596;9.960;2023-02-15T01:06:58;108.40;;;42.90;;
14342;SDS011;7255;53.596;9.960;2023-02-15T01:09:24;110.00;;;44.73;;
14342;SDS011;7255;53.596;9.960;2023-02-15T01:11:50;98.67;;;43.03;;
14342;SDS011;7255;53.596;9.960;2023-02-15T01:14:18;99.47;;;42.23;;
14342;SDS011;7255;53.596;9.960;2023-02-15T01:16:44;96.63;;;43.80;;
14342;SDS011;7255;53.596;9.960;2023-02-15T01:19:10;101.63;;;44.13;;
14342;SDS011;7255;53.596;9.960;2023-02-15T01:21:36;128.17;;;45.77;;
14342;SDS011;7255;53.596;9.960;2023-02-15T01:24:03;101.07;;;42.30;;
14342;SDS011;7255;53.596;9.960;2023-02-15T01:26:29;95.40;;;42.23;;
14342;SDS011;7255;53.596;9.960;2023-02-15T01:28:55;107.50;;;41.37;;
14342;SDS011;7255;53.596;9.960;2023-02-15T01:31:23;99.90;;;41.77;;
14342;SDS011;7255;53.596;9.960;2023-02-15T01:33:49;112.40;;;44.97;;
14342;SDS011;7255;53.596;9.960;2023-02-15T01:36:15;101.60;;;42.80;;
14342;SDS011;7255;53.596;9.960;2023-02-15T01:38:42;108.03;;;44.80;;
14342;SDS011;7255;53.596;9.960;2023-02-15T01:41:08;108.23;;;44.63;;
14342;SDS011;7255;53.596;9.960;2023-02-15T01:43:48;97.43;;;42.17;;
14342;SDS011;7255;53.596;9.960;2023-02-15T01:46:15;107.07;;;44.43;;
14342;SDS011;7255;53.596;9.960;2023-02-15T01:48:45;105.93;;;43.37;;
14342;SDS011;7255;53.596;9.960;2023-02-15T01:51:12;98.67;;;42.30;;
14342;SDS011;7255;53.596;9.960;2023-02-15T01:53:40;96.33;;;41.90;;
14342;SDS011;7255;53.596;9.960;2023-02-15T01:56:08;100.60;;;42.83;;
14342;SDS011;7255;53.596;9.960;2023-02-15T01:58:36;104.00;;;43.00;;
14342;SDS011;7255;53.596;9.960;2023-02-15T02:01:02;96.27;;;41.63;;
14342;SDS011;7255;53.596;9.960;2023-02-15T02:03:30;90.47;;;40.77;;
14342;SDS011;7255;53.596;9.960;2023-02-15T02:06:03;89.53;;;39.57;;
14342;SDS011;7255;53.596;9.960;2023-02-15T02:08:30;86.90;;;39.20;;
14342;SDS011;7255;53.596;9.960;2023-02-15T02:10:56;81.80;;;38.70;;
14342;SDS011;7255;53.596;9.960;2023-02-15T02:13:22;82.87;;;40.47;;
14342;SDS011;7255;53.596;9.960;2023-02-15T02:15:51;89.70;;;39.87;;
14342;SDS011;7255;53.596;9.960;2023-02-15T02:18:22;90.07;;;39.87;;
14342;SDS011;7255;53.596;9.960;2023-02-15T02:21:13;89.87;;;39.80;;
14342;SDS011;7255;53.596;9.960;2023-02-15T02:23:46;86.90;;;38.60;;
14342;SDS011;7255;53.596;9.960;2023-02-15T02:26:22;88.50;;;39.53;;
14342;SDS011;7255;53.596;9.960;2023-02-15T02:31:42;88.37;;;39.10;;
14342;SDS011;7255;53.596;9.960;2023-02-15T02:34:11;91.20;;;39.67;;
14342;SDS011;7255;53.596;9.960;2023-02-15T02:36:41;90.50;;;39.03;;
14342;SDS011;7255;53.596;9.960;2023-02-15T02:39:19;93.00;;;41.60;;
14342;SDS011;7255;53.596;9.960;2023-02-15T02:41:50;94.03;;;39.67;;
14342;SDS011;7255;53.596;9.960;2023-02-15T02:44:18;88.23;;;39.73;;
14342;SDS011;7255;53.596;9.960;2023-02-15T02:46:47;90.07;;;38.13;;
14342;SDS011;7255;53.596;9.960;2023-02-15T02:49:16;87.33;;;39.90;;
14342;SDS011;7255;53.596;9.960;2023-02-15T02:51:42;85.83;;;40.00;;
14342;SDS011;7255;53.596;9.960;2023-02-15T02:54:08;90.87;;;39.47;;
14342;SDS011;7255;53.596;9.960;2023-02-15T02:56:36;88.87;;;38.43;;
14342;SDS011;7255;53.596;9.960;2023-02-15T02:59:04;87.57;;;40.10;;
14342;SDS011;7255;53.596;9.960;2023-02-15T03:01:32;85.00;;;38.67;;
14342;SDS011;7255;53.596;9.960;2023-02-15T03:04:00;101.77;;;39.97;;
14342;SDS011;7255;53.596;9.960;2023-02-15T03:06:33;89.93;;;39.37;;
14342;SDS011;7255;53.596;9.960;2023-02-15T03:09:01;99.17;;;42.77;;
14342;SDS011;7255;53.596;9.960;2023-02-15T03:11:29;103.33;;;40.60;;
14342;SDS011;7255;53.596;9.960;2023-02-15T03:13:55;94.87;;;40.70;;
14342;SDS011;7255;53.596;9.960;2023-02-15T03:16:22;98.83;;;42.63;;
14342;SDS011;7255;53.596;9.960;2023-02-15T03:18:51;97.07;;;42.33;;
14342;SDS011;7255;53.596;9.960;2023-02-15T03:21:22;93.03;;;40.60;;
14342;SDS011;7255;53.596;9.960;2023-02-15T03:23:52;91.63;;;39.37;;
14342;SDS011;7255;53.596;9.960;2023-02-15T03:26:20;102.00;;;40.07;;
14342;SDS011;7255;53.596;9.960;2023-02-15T03:28:47;91.93;;;40.70;;
14342;SDS011;7255;53.596;9.960;2023-02-15T03:31:15;81.50;;;39.43;;
14342;SDS011;7255;53.596;9.960;2023-02-15T03:33:44;91.50;;;41.53;;
14342;SDS011;7255;53.596;9.960;2023-02-15T03:36:11;100.47;;;41.60;;
14342;SDS011;7255;53.596;9.960;2023-02-15T03:38:44;89.77;;;39.53;;
14342;SDS011;7255;53.596;9.960;2023-02-15T03:41:15;90.33;;;39.50;;
14342;SDS011;7255;53.596;9.960;2023-02-15T03:43:44;89.37;;;39.40;;
14342;SDS011;7255;53.596;9.960;2023-02-15T03:46:12;80.87;;;36.10;;
14342;SDS011;7255;53.596;9.960;2023-02-15T03:48:42;79.47;;;37.43;;
14342;SDS011;7255;53.596;9.960;2023-02-15T03:51:10;82.97;;;37.83;;
14342;SDS011;7255;53.596;9.960;2023-02-15T03:53:56;69.47;;;33.93;;
14342;SDS011;7255;53.596;9.960;2023-02-15T03:56:25;75.33;;;34.67;;
14342;SDS011;7255;53.596;9.960;2023-02-15T03:58:51;81.27;;;35.37;;
14342;SDS011;7255;53.596;9.960;2023-02-15T04:01:37;76.20;;;37.93;;
14342;SDS011;7255;53.596;9.960;2023-02-15T04:04:23;67.00;;;34.73;;
14342;SDS011;7255;53.596;9.960;2023-02-15T04:06:50;71.47;;;35.10;;
14342;SDS011;7255;53.596;9.960;2023-02-15T04:09:17;70.43;;;34.77;;
14342;SDS011;7255;53.596;9.960;2023-02-15T04:12:02;73.07;;;34.60;;
14342;SDS011;7255;53.596;9.960;2023-02-15T04:14:28;70.60;;;34.27;;
14342;SDS011;7255;53.596;9.960;2023-02-15T04:17:12;73.80;;;34.83;;
14342;SDS011;7255;53.596;9.960;2023-02-15T04:19:38;67.57;;;34.20;;
14342;SDS011;7255;53.596;9.960;2023-02-15T04:22:22;60.87;;;32.37;;
14342;SDS011;7255;53.596;9.960;2023-02-15T04:25:06;70.03;;;34.67;;
14342;SDS011;7255;53.596;9.960;2023-02-15T04:27:36;65.57;;;32.27;;
14342;SDS011;7255;53.596;9.960;2023-02-15T04:30:02;69.70;;;33.67;;
14342;SDS011;7255;53.596;9.960;2023-02-15T04:32:29;67.07;;;34.43;;
14342;SDS011;7255;53.596;9.960;2023-02-15T04:34:55;72.33;;;34.50;;
14342;SDS011;7255;53.596;9.960;2023-02-15T04:37:21;69.43;;;35.53;;
14342;SDS011;7255;53.596;9.960;2023-02-15T04:39:48;69.03;;;33.33;;
14342;SDS011;7255;53.596;9.960;2023-02-15T04:42:14;68.67;;;34.57;;
14342;SDS011;7255;53.596;9.960;2023-02-15T04:44:42;59.40;;;32.73;;
14342;SDS011;7255;53.596;9.960;2023-02-15T04:47:08;65.03;;;33.83;;
14342;SDS011;7255;53.596;9.960;2023-02-15T04:49:35;61.83;;;32.43;;
14342;SDS011;7255;53.596;9.960;2023-02-15T04:52:01;64.07;;;33.10;;
14342;SDS011;7255;53.596;9.960;2023-02-15T04:54:27;71.60;;;33.40;;
14342;SDS011;7255;53.596;9.960;2023-02-15T04:56:53;63.50;;;33.20;;
14342;SDS011;7255;53.596;9.960;2023-02-15T04:59:19;65.23;;;33.00;;
14342;SDS011;7255;53.596;9.960;2023-02-15T05:01:47;67.43;;;34.23;;
14342;SDS011;7255;53.596;9.960;2023-02-15T05:04:13;65.07;;;34.13;;
14342;SDS011;7255;53.596;9.960;2023-02-15T05:06:39;68.33;;;33.03;;
14342;SDS011;7255;53.596;9.960;2023-02-15T05:09:06;59.80;;;33.40;;
14342;SDS011;7255;53.596;9.960;2023-02-15T05:11:32;65.50;;;33.07;;
14342;SDS011;7255;53.596;9.960;2023-02-15T05:13:58;74.47;;;34.53;;
14342;SDS011;7255;53.596;9.960;2023-02-15T05:16:24;66.47;;;34.57;;
14342;SDS011;7255;53.596;9.960;2023-02-15T05:18:53;69.63;;;32.23;;
14342;SDS011;7255;53.596;9.960;2023-02-15T05:21:20;59.53;;;32.80;;
14342;SDS011;7255;53.596;9.960;2023-02-15T05:23:46;61.20;;;32.23;;
14342;SDS011;7255;53.596;9.960;2023-02-15T05:26:13;68.57;;;34.17;;
14342;SDS011;7255;53.596;9.960;2023-02-15T05:28:59;67.13;;;32.60;;
14342;SDS011;7255;53.596;9.960;2023-02-15T05:31:25;66.47;;;34.57;;
14342;SDS011;7255;53.596;9.960;2023-02-15T05:33:51;63.43;;;32.60;;
14342;SDS011;7255;53.596;9.960;2023-02-15T05:36:19;65.00;;;33.13;;
14342;SDS011;7255;53.596;9.960;2023-02-15T05:38:45;70.93;;;32.83;;
14342;SDS011;7255;53.596;9.960;2023-02-15T05:41:11;62.20;;;33.43;;
14342;SDS011;7255;53.596;9.960;2023-02-15T05:43:38;71.83;;;32.67;;
14342;SDS011;7255;53.596;9.960;2023-02-15T05:46:04;65.20;;;33.57;;
14342;SDS011;7255;53.596;9.960;2023-02-15T05:48:31;63.80;;;33.33;;
14342;SDS011;7255;53.596;9.960;2023-02-15T05:50:58;76.33;;;35.53;;
14342;SDS011;7255;53.596;9.960;2023-02-15T05:53:26;75.80;;;33.83;;
14342;SDS011;7255;53.596;9.960;2023-02-15T05:55:53;77.23;;;34.67;;
14342;SDS011;7255;53.596;9.960;2023-02-15T05:58:23;72.60;;;34.07;;
14342;SDS011;7255;53.596;9.960;2023-02-15T06:00:49;70.77;;;34.57;;
14342;SDS011;7255;53.596;9.960;2023-02-15T06:03:16;72.57;;;34.00;;
14342;SDS011;7255;53.596;9.960;2023-02-15T06:05:42;70.33;;;33.83;;
14342;SDS011;7255;53.596;9.960;2023-02-15T06:08:08;67.03;;;32.37;;
14342;SDS011;7255;53.596;9.960;2023-02-15T06:10:36;63.60;;;30.77;;
14342;SDS011;7255;53.596;9.960;2023-02-15T06:13:02;71.97;;;33.27;;
14342;SDS011;7255;53.596;9.960;2023-02-15T06:15:28;59.37;;;32.20;;
14342;SDS011;7255;53.596;9.960;2023-02-15T06:17:54;71.47;;;33.60;;
14342;SDS011;7255;53.596;9.960;2023-02-15T06:20:20;63.40;;;33.80;;
14342;SDS011;7255;53.596;9.960;2023-02-15T06:22:47;67.07;;;32.17;;
14342;SDS011;7255;53.596;9.960;2023-02-15T06:25:13;63.47;;;32.67;;
14342;SDS011;7255;53.596;9.960;2023-02-15T06:27:41;60.50;;;31.57;;
14342;SDS011;7255;53.596;9.960;2023-02-15T06:30:08;60.63;;;31.77;;
14342;SDS011;7255;53.596;9.960;2023-02-15T06:32:35;65.67;;;33.47;;
14342;SDS011;7255;53.596;9.960;2023-02-15T06:35:01;60.37;;;30.40;;
14342;SDS011;7255;53.596;9.960;2023-02-15T06:37:28;61.10;;;31.73;;
14342;SDS011;7255;53.596;9.960;2023-02-15T06:39:56;63.90;;;32.07;;
14342;SDS011;7255;53.596;9.960;2023-02-15T06:42:23;63.67;;;33.17;;
14342;SDS011;7255;53.596;9.960;2023-02-15T06:44:50;63.07;;;31.03;;
14342;SDS011;7255;53.596;9.960;2023-02-15T06:47:16;66.70;;;33.50;;
14342;SDS011;7255;53.596;9.960;2023-02-15T06:49:43;58.83;;;32.43;;
14342;SDS011;7255;53.596;9.960;2023-02-15T06:52:09;64.33;;;32.40;;
14342;SDS011;7255;53.596;9.960;2023-02-15T06:54:35;63.33;;;33.23;;
14342;SDS011;7255;53.596;9.960;2023-02-15T06:57:01;58.20;;;31.87;;
14342;SDS011;7255;53.596;9.960;2023-02-15T06:59:27;57.87;;;31.80;;
14342;SDS011;7255;53.596;9.960;2023-02-15T07:01:55;53.63;;;31.83;;
14342;SDS011;7255;53.596;9.960;2023-02-15T07:04:21;61.77;;;31.60;;
14342;SDS011;7255;53.596;9.960;2023-02-15T07:06:48;63.47;;;31.80;;
14342;SDS011;7255;53.596;9.960;2023-02-15T07:09:14;66.20;;;34.97;;
14342;SDS011;7255;53.596;9.960;2023-02-15T07:11:40;70.07;;;35.77;;
14342;SDS011;7255;53.596;9.960;2023-02-15T07:14:24;60.40;;;31.93;;
14342;SDS011;7255;53.596;9.960;2023-02-15T07:16:50;65.00;;;35.23;;
14342;SDS011;7255;53.596;9.960;2023-02-15T07:19:17;66.10;;;34.57;;
14342;SDS011;7255;53.596;9.960;2023-02-15T07:21:44;71.67;;;35.40;;
14342;SDS011;7255;53.596;9.960;2023-02-15T07:24:10;61.17;;;32.67;;
14342;SDS011;7255;53.596;9.960;2023-02-15T07:26:36;58.83;;;32.70;;
14342;SDS011;7255;53.596;9.960;2023-02-15T07:29:02;62.90;;;32.00;;
14342;SDS011;7255;53.596;9.960;2023-02-15T07:31:29;57.73;;;32.57;;
14342;SDS011;7255;53.596;9.960;2023-02-15T07:33:55;64.83;;;32.20;;
14342;SDS011;7255;53.596;9.960;2023-02-15T07:36:23;51.60;;;29.73;;
14342;SDS011;7255;53.596;9.960;2023-02-15T07:38:49;56.50;;;30.97;;
14342;SDS011;7255;53.596;9.960;2023-02-15T07:41:15;58.73;;;31.13;;
14342;SDS011;7255;53.596;9.960;2023-02-15T07:43:42;62.07;;;32.10;;
14342;SDS011;7255;53.596;9.960;2023-02-15T07:46:09;56.73;;;32.83;;
14342;SDS011;7255;53.596;9.960;2023-02-15T07:48:36;62.20;;;35.07;;
14342;SDS011;7255;53.596;9.960;2023-02-15T07:51:03;64.97;;;35.30;;
14342;SDS011;7255;53.596;9.960;2023-02-15T07:53:31;60.90;;;33.53;;
14342;SDS011;7255;53.596;9.960;2023-02-15T07:55:58;57.73;;;32.43;;
14342;SDS011;7255;53.596;9.960;2023-02-15T07:58:24;64.50;;;34.97;;
14342;SDS011;7255;53.596;9.960;2023-02-15T08:01:11;63.00;;;32.60;;
14342;SDS011;7255;53.596;9.960;2023-02-15T08:03:37;63.57;;;31.57;;
14342;SDS011;7255;53.596;9.960;2023-02-15T08:06:03;57.77;;;33.00;;
14342;SDS011;7255;53.596;9.960;2023-02-15T08:08:32;60.17;;;32.40;;
14342;SDS011;7255;53.596;9.960;2023-02-15T08:10:59;59.43;;;32.50;;
14342;SDS011;7255;53.596;9.960;2023-02-15T08:13:43;57.27;;;32.43;;
14342;SDS011;7255;53.596;9.960;2023-02-15T08:16:18;68.70;;;32.77;;
14342;SDS011;7255;53.596;9.960;2023-02-15T08:18:44;61.53;;;34.80;;
14342;SDS011;7255;53.596;9.960;2023-02-15T08:21:11;68.67;;;34.83;;
14342;SDS011;7255;53.596;9.960;2023-02-15T08:23:38;68.53;;;34.90;;
14342;SDS011;7255;53.596;9.960;2023-02-15T08:26:04;61.33;;;33.70;;
14342;SDS011;7255;53.596;9.960;2023-02-15T08:28:31;65.10;;;32.87;;
14342;SDS011;7255;53.596;9.960;2023-02-15T08:31:03;59.83;;;32.67;;
14342;SDS011;7255;53.596;9.960;2023-02-15T08:33:29;60.20;;;33.17;;
14342;SDS011;7255;53.596;9.960;2023-02-15T08:45:06;56.20;;;30.73;;
14342;SDS011;7255;53.596;9.960;2023-02-15T08:47:32;67.57;;;33.10;;
14342;SDS011;7255;53.596;9.960;2023-02-15T08:49:58;61.50;;;33.07;;
14342;SDS011;7255;53.596;9.960;2023-02-15T08:52:24;61.00;;;33.47;;
14342;SDS011;7255;53.596;9.960;2023-02-15T08:54:51;52.67;;;31.93;;
14342;SDS011;7255;53.596;9.960;2023-02-15T08:57:17;55.73;;;31.83;;
14342;SDS011;7255;53.596;9.960;2023-02-15T08:59:43;52.23;;;31.10;;
14342;SDS011;7255;53.596;9.960;2023-02-15T09:02:10;49.17;;;31.43;;
14342;SDS011;7255;53.596;9.960;2023-02-15T09:04:37;51.23;;;29.77;;
14342;SDS011;7255;53.596;9.960;2023-02-15T09:07:03;55.23;;;32.10;;
14342;SDS011;7255;53.596;9.960;2023-02-15T09:09:30;52.07;;;31.80;;
14342;SDS011;7255;53.596;9.960;2023-02-15T09:11:56;55.87;;;32.30;;
14342;SDS011;7255;53.596;9.960;2023-02-15T09:14:23;52.67;;;32.13;;
14342;SDS011;7255;53.596;9.960;2023-02-15T09:16:51;50.37;;;32.30;;
14342;SDS011;7255;53.596;9.960;2023-02-15T09:19:20;52.77;;;31.70;;
14342;SDS011;7255;53.596;9.960;2023-02-15T09:21:46;52.70;;;32.17;;
14342;SDS011;7255;53.596;9.960;2023-02-15T09:24:13;49.53;;;29.07;;
14342;SDS011;7255;53.596;9.960;2023-02-15T09:26:40;49.07;;;30.40;;
14342;SDS011;7255;53.596;9.960;2023-02-15T09:29:07;48.00;;;30.10;;
14342;SDS011;7255;53.596;9.960;2023-02-15T09:31:36;47.97;;;30.10;;
14342;SDS011;7255;53.596;9.960;2023-02-15T09:34:03;54.50;;;33.40;;
14342;SDS011;7255;53.596;9.960;2023-02-15T09:36:31;51.43;;;31.90;;
14342;SDS011;7255;53.596;9.960;2023-02-15T09:38:58;46.10;;;30.57;;
14342;SDS011;7255;53.596;9.960;2023-02-15T09:41:32;44.90;;;30.13;;
14342;SDS011;7255;53.596;9.960;2023-02-15T09:44:05;46.30;;;30.33;;
14342;SDS011;7255;53.596;9.960;2023-02-15T09:46:50;50.80;;;28.53;;
14342;SDS011;7255;53.596;9.960;2023-02-15T09:49:21;45.37;;;30.40;;
14342;SDS011;7255;53.596;9.960;2023-02-15T09:51:59;43.53;;;29.20;;
14342;SDS011;7255;53.596;9.960;2023-02-15T09:54:40;44.30;;;29.57;;
14342;SDS011;7255;53.596;9.960;2023-02-15T09:57:13;47.33;;;30.10;;
14342;SDS011;7255;53.596;9.960;2023-02-15T09:59:44;48.33;;;30.67;;
14342;SDS011;7255;53.596;9.960;2023-02-15T10:02:15;46.13;;;29.03;;
14342;SDS011;7255;53.596;9.960;2023-02-15T10:04:49;49.40;;;30.43;;
14342;SDS011;7255;53.596;9.960;2023-02-15T10:07:23;42.87;;;28.83;;
14342;SDS011;7255;53.596;9.960;2023-02-15T10:09:56;45.00;;;28.80;;
14342;SDS011;7255;53.596;9.960;2023-02-15T10:12:32;39.63;;;27.47;;
14342;SDS011;7255;53.596;9.960;2023-02-15T10:15:04;45.57;;;29.13;;
14342;SDS011;7255;53.596;9.960;2023-02-15T10:17:41;43.17;;;28.17;;
14342;SDS011;7255;53.596;9.960;2023-02-15T10:20:12;41.30;;;28.07;;
14342;SDS011;7255;53.596;9.960;2023-02-15T10:22:48;42.40;;;27.83;;
14342;SDS011;7255;53.596;9.960;2023-02-15T10:25:22;43.23;;;29.17;;
14342;SDS011;7255;53.596;9.960;2023-02-15T10:27:50;45.87;;;29.17;;
14342;SDS011;7255;53.596;9.960;2023-02-15T10:30:17;42.23;;;29.77;;
14342;SDS011;7255;53.596;9.960;2023-02-15T10:32:50;42.30;;;28.80;;
14342;SDS011;7255;53.596;9.960;2023-02-15T10:35:20;40.05;;;28.05;;
14342;SDS011;7255;53.596;9.960;2023-02-15T10:37:52;39.33;;;26.40;;
14342;SDS011;7255;53.596;9.960;2023-02-15T10:40:22;37.70;;;26.77;;
14342;SDS011;7255;53.596;9.960;2023-02-15T10:42:59;37.88;;;28.20;;
14342;SDS011;7255;53.596;9.960;2023-02-15T10:45:35;40.45;;;27.42;;
14342;SDS011;7255;53.596;9.960;2023-02-15T10:48:08;41.33;;;28.05;;
14342;SDS011;7255;53.596;9.960;2023-02-15T10:50:41;42.50;;;29.45;;
14342;SDS011;7255;53.596;9.960;2023-02-15T10:53:15;41.40;;;29.65;;
14342;SDS011;7255;53.596;9.960;2023-02-15T10:55:47;42.38;;;28.77;;
14342;SDS011;7255;53.596;9.960;2023-02-15T10:58:17;37.78;;;28.52;;
14342;SDS011;7255;53.596;9.960;2023-02-15T11:00:46;42.05;;;29.98;;
14342;SDS011;7255;53.596;9.960;2023-02-15T11:03:20;45.45;;;29.92;;
14342;SDS011;7255;53.596;9.960;2023-02-15T11:05:50;42.42;;;29.58;;
14342;SDS011;7255;53.596;9.960;2023-02-15T11:08:24;42.95;;;30.23;;
14342;SDS011;7255;53.596;9.960;2023-02-15T11:10:51;37.90;;;28.67;;
14342;SDS011;7255;53.596;9.960;2023-02-15T11:13:19;39.28;;;28.02;;
14342;SDS011;7255;53.596;9.960;2023-02-15T11:15:46;41.55;;;30.65;;
14342;SDS011;7255;53.596;9.960;2023-02-15T11:18:14;45.63;;;31.62;;
14342;SDS011;7255;53.596;9.960;2023-02-15T11:20:42;45.12;;;31.75;;
14342;SDS011;7255;53.596;9.960;2023-02-15T11:23:12;41.95;;;30.45;;
14342;SDS011;7255;53.596;9.960;2023-02-15T11:25:41;42.40;;;30.90;;
14342;SDS011;7255;53.596;9.960;2023-02-15T11:28:10;44.75;;;29.85;;
14342;SDS011;7255;53.596;9.960;2023-02-15T11:30:43;39.53;;;30.08;;
14342;SDS011;7255;53.596;9.960;2023-02-15T11:33:12;42.47;;;30.95;;
14342;SDS011;7255;53.596;9.960;2023-02-15T11:35:46;43.58;;;31.30;;
14342;SDS011;7255;53.596;9.960;2023-02-15T11:38:14;41.10;;;30.52;;
14342;SDS011;7255;53.596;9.960;2023-02-15T11:40:45;45.05;;;31.48;;
14342;SDS011;7255;53.596;9.960;2023-02-15T11:43:13;44.40;;;31.27;;
14342;SDS011;7255;53.596;9.960;2023-02-15T11:45:41;39.95;;;29.92;;
14342;SDS011;7255;53.596;9.960;2023-02-15T11:48:09;41.28;;;30.55;;
14342;SDS011;7255;53.596;9.960;2023-02-15T11:50:36;46.30;;;31.00;;
14342;SDS011;7255;53.596;9.960;2023-02-15T11:53:03;41.78;;;30.98;;
14342;SDS011;7255;53.596;9.960;2023-02-15T11:55:29;38.88;;;29.75;;
14342;SDS011;7255;53.596;9.960;2023-02-15T11:57:59;43.42;;;31.33;;
14342;SDS011;7255;53.596;9.960;2023-02-15T12:00:31;43.50;;;31.92;;
14342;SDS011;7255;53.596;9.960;2023-02-15T12:03:01;43.90;;;30.75;;
14342;SDS011;7255;53.596;9.960;2023-02-15T12:05:28;41.95;;;31.58;;
14342;SDS011;7255;53.596;9.960;2023-02-15T12:07:55;42.13;;;30.70;;
14342;SDS011;7255;53.596;9.960;2023-02-15T12:10:23;47.13;;;31.05;;
14342;SDS011;7255;53.596;9.960;2023-02-15T12:13:07;41.15;;;28.80;;
14342;SDS011;7255;53.596;9.960;2023-02-15T12:15:33;41.00;;;29.33;;
14342;SDS011;7255;53.596;9.960;2023-02-15T12:18:00;42.13;;;30.12;;
14342;SDS011;7255;53.596;9.960;2023-02-15T12:20:28;39.20;;;30.25;;
14342;SDS011;7255;53.596;9.960;2023-02-15T12:22:58;38.67;;;29.67;;
14342;SDS011;7255;53.596;9.960;2023-02-15T12:25:28;41.05;;;31.35;;
14342;SDS011;7255;53.596;9.960;2023-02-15T12:27:54;40.30;;;29.77;;
14342;SDS011;7255;53.596;9.960;2023-02-15T12:30:23;41.05;;;29.50;;
14342;SDS011;7255;53.596;9.960;2023-02-15T12:32:51;41.47;;;31.90;;
14342;SDS011;7255;53.596;9.960;2023-02-15T12:35:21;40.05;;;30.35;;
14342;SDS011;7255;53.596;9.960;2023-02-15T12:37:52;41.83;;;32.30;;
14342;SDS011;7255;53.596;9.960;2023-02-15T12:40:20;43.45;;;30.85;;
14342;SDS011;7255;53.596;9.960;2023-02-15T12:42:47;40.55;;;29.75;;
14342;SDS011;7255;53.596;9.960;2023-02-15T12:45:20;39.58;;;28.65;;
14342;SDS011;7255;53.596;9.960;2023-02-15T12:47:48;39.65;;;30.52;;
14342;SDS011;7255;53.596;9.960;2023-02-15T12:50:33;42.35;;;30.75;;
14342;SDS011;7255;53.596;9.960;2023-02-15T12:53:05;37.67;;;29.48;;
14342;SDS011;7255;53.596;9.960;2023-02-15T12:55:32;40.45;;;30.50;;
14342;SDS011;7255;53.596;9.960;2023-02-15T12:58:05;38.58;;;31.02;;
14342;SDS011;7255;53.596;9.960;2023-02-15T13:00:31;39.35;;;30.10;;
14342;SDS011;7255;53.596;9.960;2023-02-15T13:02:59;34.97;;;28.95;;
14342;SDS011;7255;53.596;9.960;2023-02-15T13:05:26;36.40;;;28.15;;
14342;SDS011;7255;53.596;9.960;2023-02-15T13:07:54;40.38;;;30.83;;
14342;SDS011;7255;53.596;9.960;2023-02-15T13:10:22;37.63;;;28.90;;
14342;SDS011;7255;53.596;9.960;2023-02-15T13:12:50;38.42;;;29.80;;
14342;SDS011;7255;53.596;9.960;2023-02-15T13:15:23;36.40;;;28.92;;
14342;SDS011;7255;53.596;9.960;2023-02-15T13:17:50;35.72;;;28.38;;
14342;SDS011;7255;53.596;9.960;2023-02-15T13:20:19;33.03;;;26.35;;
14342;SDS011;7255;53.596;9.960;2023-02-15T13:22:57;36.00;;;28.08;;
14342;SDS011;7255;53.596;9.960;2023-02-15T13:25:25;38.72;;;27.83;;
14342;SDS011;7255;53.596;9.960;2023-02-15T13:27:52;36.40;;;26.85;;
14342;SDS011;7255;53.596;9.960;2023-02-15T13:30:22;34.55;;;28.17;;
14342;SDS011;7255;53.596;9.960;2023-02-15T13:32:51;34.53;;;28.05;;
14342;SDS011;7255;53.596;9.960;2023-02-15T13:35:19;36.65;;;29.10;;
14342;SDS011;7255;53.596;9.960;2023-02-15T13:37:50;34.05;;;27.87;;
14342;SDS011;7255;53.596;9.960;2023-02-15T13:40:18;34.78;;;26.42;;
14342;SDS011;7255;53.596;9.960;2023-02-15T13:42:49;30.17;;;25.05;;
14342;SDS011;7255;53.596;9.960;2023-02-15T13:45:21;36.92;;;26.05;;
14342;SDS011;7255;53.596;9.960;2023-02-15T13:47:56;33.40;;;26.17;;
14342;SDS011;7255;53.596;9.960;2023-02-15T13:50:31;33.85;;;27.10;;
14342;SDS011;7255;53.596;9.960;2023-02-15T13:53:07;32.33;;;26.85;;
14342;SDS011;7255;53.596;9.960;2023-02-15T13:55:37;32.90;;;25.50;;
14342;SDS011;7255;53.596;9.960;2023-02-15T13:58:13;39.45;;;28.15;;
14342;SDS011;7255;53.596;9.960;2023-02-15T14:00:44;33.63;;;26.35;;
14342;SDS011;7255;53.596;9.960;2023-02-15T14:03:31;31.90;;;26.98;;
14342;SDS011;7255;53.596;9.960;2023-02-15T14:06:09;34.20;;;26.67;;
14342;SDS011;7255;53.596;9.960;2023-02-15T14:08:41;33.20;;;26.85;;
14342;SDS011;7255;53.596;9.960;2023-02-15T14:11:12;33.67;;;27.30;;
14342;SDS011;7255;53.596;9.960;2023-02-15T14:13:54;34.42;;;27.33;;
14342;SDS011;7255;53.596;9.960;2023-02-15T14:16:27;31.73;;;25.88;;
14342;SDS011;7255;53.596;9.960;2023-02-15T14:18:59;33.78;;;27.00;;
14342;SDS011;7255;53.596;9.960;2023-02-15T14:21:30;32.88;;;25.65;;
14342;SDS011;7255;53.596;9.960;2023-02-15T14:24:00;32.85;;;26.23;;
14342;SDS011;7255;53.596;9.960;2023-02-15T14:26:31;30.52;;;25.58;;
14342;SDS011;7255;53.596;9.960;2023-02-15T14:29:01;29.92;;;25.85;;
14342;SDS011;7255;53.596;9.960;2023-02-15T14:31:33;29.70;;;25.33;;
14342;SDS011;7255;53.596;9.960;2023-02-15T14:34:15;32.10;;;24.87;;
14342;SDS011;7255;53.596;9.960;2023-02-15T14:36:45;31.17;;;24.45;;
14342;SDS011;7255;53.596;9.960;2023-02-15T14:39:14;30.65;;;25.33;;
14342;SDS011;7255;53.596;9.960;2023-02-15T14:42:08;31.77;;;25.33;;
14342;SDS011;7255;53.596;9.960;2023-02-15T14:44:38;34.30;;;26.42;;
14342;SDS011;7255;53.596;9.960;2023-02-15T14:47:05;33.45;;;25.73;;
14342;SDS011;7255;53.596;9.960;2023-02-15T14:49:35;30.85;;;24.40;;
14342;SDS011;7255;53.596;9.960;2023-02-15T14:52:04;31.17;;;24.23;;
14342;SDS011;7255;53.596;9.960;2023-02-15T14:57:20;28.35;;;24.45;;
14342;SDS011;7255;53.596;9.960;2023-02-15T14:59:50;35.42;;;23.92;;